To NAV CANADA Home Page Login to a new session Search on AWWS site Feedback and Comments Disclaimer Vers la page française équivalente Tips FAQ What's new on the site To the Forecasts and Observations / NOTAM section To "File a Flight Plan" website Publications and other links Update of the User's profile FIC Telephone Numbers My Weather Data Folder Route Weather Data Regional Weather Data Local Weather Data To the Forecasts and Observations / NOTAM section
Request Generated 03/06/2015 at 20:00:27 UTC . Weather information available at that time is displayed.

METAR/TAF

COMOX/BC    

METAR CYQQ 061900Z 02005KT 20SM FEW047 SCT160 BKN210 09/04 A3047 RMK SC1AC2CI2 SLP320=
METAR CYQQ 061800Z 00000KT 20SM FEW047 SCT160 BKN210 07/04 A3047 RMK SC2AC2CI2 SLP319=
METAR CYQQ 061700Z 29003KT 20SM FEW047 BKN160 OVC210 06/04 A3047 RMK SC2AC3CI1 SLP319=

TAF CYQQ 061739Z 0618/0718 VRB03KT P6SM FEW050 BKN160
RMK NXT FCST BY 070000Z=
Your time UTC time
Weather data provided by Environment Canada and NAV CANADA